Time;durP1;ratioP1;P1;durP2;ratioP2;P2;SDS_P1;SDS_P2;PMS_P1;PMS_P2;Temp;Humidity;BMP_temperature;BMP_pressure;BME280_temperature;BME280_humidity;BME280_pressure;Samples;Min_cycle;Max_cycle;Signal;HPM_P1;HPM_P2
2022/06/08 00:00:40;;;;;;;1.80;0.50;;;;;;;16.92;91.49;99883.63;6110345;23;20009;-72
2022/06/08 00:03:06;;;;;;;1.00;0.43;;;;;;;16.90;91.19;99881.16;6134592;23;20009;-72
2022/06/08 00:05:31;;;;;;;1.20;0.30;;;;;;;16.89;92.19;99881.53;6134110;23;20027;-72
2022/06/08 00:07:57;;;;;;;1.33;0.30;;;;;;;16.91;91.75;99867.94;6159907;23;20009;-72
2022/06/08 00:10:22;;;;;;;1.27;0.35;;;;;;;16.87;92.54;99864.22;6160249;23;20009;-72
2022/06/08 00:12:48;;;;;;;2.28;0.30;;;;;;;16.90;92.41;99869.13;6160329;23;20080;-72
2022/06/08 00:15:14;;;;;;;1.55;0.30;;;;;;;16.87;91.51;99853.00;6160166;23;20036;-72
2022/06/08 00:17:39;;;;;;;2.00;0.52;;;;;;;16.87;91.18;99848.22;6160696;23;20020;-72
2022/06/08 00:20:06;;;;;;;1.55;0.30;;;;;;;16.88;91.14;99849.03;6160202;23;20009;-72
2022/06/08 00:22:31;;;;;;;1.80;0.20;;;;;;;16.85;91.53;99844.13;6160589;23;20016;-72
2022/06/08 00:24:57;;;;;;;2.17;0.32;;;;;;;16.84;91.83;99837.72;6160309;23;20005;-72
2022/06/08 00:27:22;;;;;;;0.30;0.20;;;;;;;16.79;94.17;99835.13;6159907;23;20013;-72
2022/06/08 00:29:48;;;;;;;0.55;0.30;;;;;;;16.82;92.48;99840.03;6160070;23;20024;-72
2022/06/08 00:32:13;;;;;;;0.95;0.20;;;;;;;16.81;92.37;99834.78;6160186;23;20009;-72
2022/06/08 00:34:39;;;;;;;0.55;0.20;;;;;;;16.78;93.38;99843.91;6160346;23;20446;-72
2022/06/08 00:37:04;;;;;;;1.40;0.20;;;;;;;16.79;93.65;99837.13;6160402;23;20527;-72
2022/06/08 00:39:30;;;;;;;1.27;0.10;;;;;;;16.78;92.42;99838.31;6160192;23;20149;-72
2022/06/08 00:41:59;;;;;;;0.20;0.20;;;;;;;16.80;92.97;99841.56;6159797;23;20510;-72
2022/06/08 00:44:28;;;;;;;0.63;0.10;;;;;;;16.78;92.66;99838.31;6134527;23;20005;-72
2022/06/08 00:46:53;;;;;;;0.95;0.10;;;;;;;16.79;92.76;99834.31;6110041;23;20010;-72
2022/06/08 00:49:27;;;;;;;0.63;0.10;;;;;;;16.76;95.21;99835.81;6109670;23;20093;-72
2022/06/08 00:51:53;;;;;;;0.90;0.10;;;;;;;16.78;93.86;99835.50;6134072;23;20385;-72
2022/06/08 00:54:35;;;;;;;0.10;0.00;;;;;;;16.78;92.98;99832.69;6158861;23;20021;-72
2022/06/08 00:57:13;;;;;;;1.73;0.20;;;;;;;16.78;93.12;99821.47;6160117;23;20052;-72
2022/06/08 00:59:42;;;;;;;0.73;0.20;;;;;;;16.80;91.89;99819.13;6111669;23;20394;-72
2022/06/08 01:02:08;;;;;;;0.75;0.17;;;;;;;16.77;91.67;99819.81;6110028;23;20005;-72
2022/06/08 01:04:34;;;;;;;0.95;0.10;;;;;;;16.77;92.50;99808.63;6159576;23;20320;-72
2022/06/08 01:06:59;;;;;;;0.65;0.10;;;;;;;16.77;91.39;99811.41;6160191;23;20033;-72
2022/06/08 01:09:30;;;;;;;0.20;0.10;;;;;;;16.79;91.98;99798.69;6160014;23;20002;-72
2022/06/08 01:11:58;;;;;;;2.65;0.13;;;;;;;16.75;92.14;99801.34;6133845;23;20044;-72
2022/06/08 01:14:24;;;;;;;0.50;0.10;;;;;;;16.74;92.66;99794.13;6159974;23;20012;-72
2022/06/08 01:17:04;;;;;;;0.28;0.10;;;;;;;16.75;92.02;99801.34;6133872;23;20005;-72
2022/06/08 01:19:33;;;;;;;0.30;0.25;;;;;;;16.77;92.59;99797.41;6159521;23;20012;-72
2022/06/08 01:21:59;;;;;;;0.10;0.10;;;;;;;16.73;93.51;99800.88;6158384;23;20016;-72
2022/06/08 01:24:25;;;;;;;0.57;0.10;;;;;;;16.77;91.27;99794.59;6159918;23;20010;-72
2022/06/08 01:26:57;;;;;;;0.85;0.20;;;;;;;16.79;91.46;99797.88;6133268;23;20005;-72
2022/06/08 01:29:31;;;;;;;0.20;0.10;;;;;;;16.80;91.35;99791.09;6085805;23;20028;-72
2022/06/08 01:32:18;;;;;;;2.03;0.10;;;;;;;16.80;90.72;99788.28;6133934;23;20310;-72
2022/06/08 01:35:02;;;;;;;2.45;0.20;;;;;;;16.81;91.82;99787.13;6159742;23;20084;-72
2022/06/08 01:37:48;;;;;;;0.70;0.20;;;;;;;16.79;90.43;99781.03;6159676;23;20024;-72
2022/06/08 01:40:34;;;;;;;0.63;0.10;;;;;;;16.80;90.88;99769.50;6112490;23;20009;-72
2022/06/08 01:43:18;;;;;;;0.85;0.10;;;;;;;16.82;90.26;99763.50;6159191;23;20013;-72
2022/06/08 01:46:14;;;;;;;0.88;0.35;;;;;;;16.80;90.77;99763.03;6159659;23;20024;-72
2022/06/08 01:49:01;;;;;;;0.82;0.10;;;;;;;16.82;90.59;99771.94;6159604;23;20010;-72
2022/06/08 01:51:35;;;;;;;0.85;0.10;;;;;;;16.81;90.49;99764.69;6159251;23;20058;-72
2022/06/08 01:54:19;;;;;;;0.98;0.17;;;;;;;16.83;90.05;99773.56;6159618;23;20088;-72
2022/06/08 01:56:51;;;;;;;0.52;0.20;;;;;;;16.85;92.33;99776.81;6159079;23;20009;-72
2022/06/08 01:59:17;;;;;;;0.13;0.10;;;;;;;16.84;92.56;99766.78;6159581;23;20029;-72
2022/06/08 02:01:50;;;;;;;0.88;0.15;;;;;;;16.83;92.28;99762.34;6133214;23;20398;-72
2022/06/08 02:04:52;;;;;;;1.92;0.20;;;;;;;16.84;91.55;99758.38;6134470;23;20006;-72
2022/06/08 02:07:42;;;;;;;0.15;0.10;;;;;;;16.82;90.97;99752.28;6109549;23;20009;-72
2022/06/08 02:10:25;;;;;;;1.60;0.30;;;;;;;16.83;90.81;99751.16;6134022;23;20006;-72
2022/06/08 02:12:53;;;;;;;1.20;0.20;;;;;;;16.82;90.97;99755.09;6159081;23;20006;-72
2022/06/08 02:15:32;;;;;;;1.58;0.10;;;;;;;16.78;92.05;99760.59;6109288;23;20040;-72
2022/06/08 02:17:59;;;;;;;2.40;0.10;;;;;;;16.81;91.05;99761.88;6109756;23;20040;-72
2022/06/08 02:20:31;;;;;;;0.10;0.10;;;;;;;16.83;90.90;99751.16;6084820;23;20327;-72
2022/06/08 02:23:01;;;;;;;1.55;0.22;;;;;;;16.84;90.99;99741.53;6108990;23;20006;-72
2022/06/08 02:25:40;;;;;;;1.10;0.15;;;;;;;16.82;90.30;99733.47;6109298;23;20060;-72
2022/06/08 02:28:24;;;;;;;1.23;0.10;;;;;;;16.82;90.23;99730.66;6109077;23;20324;-72
2022/06/08 02:30:55;;;;;;;2.10;0.20;;;;;;;16.82;91.03;99725.06;6159079;23;20017;-72
2022/06/08 02:36:16;;;;;;;1.65;0.10;;;;;;;16.81;90.42;99705.81;6116418;23;20067;-72
2022/06/08 02:38:43;;;;;;;1.98;0.10;;;;;;;16.80;90.75;99705.00;6108857;23;20441;-72
2022/06/08 02:41:09;;;;;;;1.85;0.20;;;;;;;16.80;90.19;99713.41;6133391;23;20006;-72
2022/06/08 02:43:51;;;;;;;1.55;0.13;;;;;;;16.80;90.05;99706.97;6084565;23;20012;-72
2022/06/08 02:46:29;;;;;;;3.45;0.32;;;;;;;16.81;90.42;99691.78;6085517;23;20005;-72
2022/06/08 02:48:55;;;;;;;1.30;0.10;;;;;;;16.78;89.95;99692.50;6134968;23;20009;-72
2022/06/08 02:51:26;;;;;;;0.40;0.20;;;;;;;16.73;90.12;99690.72;6108113;23;20013;-72
2022/06/08 02:53:55;;;;;;;1.13;0.20;;;;;;;16.71;89.73;99699.47;6133428;23;20010;-72
2022/06/08 02:56:38;;;;;;;1.27;0.10;;;;;;;16.69;92.15;99721.47;6158960;23;20013;-72
2022/06/08 02:59:19;;;;;;;1.88;0.20;;;;;;;16.67;92.28;99726.59;6132885;23;20006;-71
2022/06/08 03:02:12;;;;;;;0.90;0.10;;;;;;;16.64;91.17;99726.50;6133047;23;20016;-72
2022/06/08 03:04:53;;;;;;;1.52;0.13;;;;;;;16.63;90.84;99728.50;6136994;23;20009;-72
2022/06/08 03:07:24;;;;;;;0.28;0.10;;;;;;;16.62;90.15;99729.66;6133688;23;20089;-72
2022/06/08 03:09:49;;;;;;;1.02;0.20;;;;;;;16.59;89.84;99735.97;6133532;23;20076;-72
2022/06/08 03:12:18;;;;;;;0.75;0.20;;;;;;;16.60;90.66;99742.38;6158509;23;20033;-72
2022/06/08 03:14:44;;;;;;;0.43;0.20;;;;;;;16.57;90.23;99732.69;6158991;23;20465;-72
2022/06/08 03:17:11;;;;;;;1.40;0.10;;;;;;;16.56;90.04;99735.84;6108620;23;20010;-72
2022/06/08 03:19:37;;;;;;;1.00;0.10;;;;;;;16.53;90.39;99726.97;6158747;23;20007;-72
2022/06/08 03:22:03;;;;;;;1.30;0.10;;;;;;;16.53;89.93;99731.78;6158778;23;20010;-72
2022/06/08 03:24:28;;;;;;;2.38;0.10;;;;;;;16.49;90.65;99725.22;6132821;23;20083;-72
2022/06/08 03:26:56;;;;;;;2.90;0.20;;;;;;;16.47;90.73;99724.78;6158490;23;20092;-72
2022/06/08 03:29:22;;;;;;;2.15;0.22;;;;;;;16.44;90.07;99728.28;6182139;23;20056;-72
2022/06/08 03:31:48;;;;;;;3.15;0.22;;;;;;;16.41;92.47;99735.41;6158836;23;20010;-72
2022/06/08 03:34:13;;;;;;;1.98;0.10;;;;;;;16.37;91.18;99728.88;6132962;23;20037;-72
2022/06/08 03:36:39;;;;;;;1.73;0.10;;;;;;;16.39;91.44;99731.34;6158642;23;20036;-72
2022/06/08 03:39:05;;;;;;;2.03;0.20;;;;;;;16.40;93.03;99727.34;6158768;23;20009;-72
2022/06/08 03:41:31;;;;;;;1.10;0.40;;;;;;;16.34;93.32;99732.38;6132807;23;20016;-72
2022/06/08 03:43:57;;;;;;;3.50;0.20;;;;;;;16.33;91.89;99730.75;6158549;23;20002;-71
2022/06/08 03:46:22;;;;;;;1.05;0.10;;;;;;;16.36;92.51;99740.44;6158759;23;20056;-71
2022/06/08 03:48:48;;;;;;;1.83;0.22;;;;;;;16.36;92.44;99734.84;6132885;23;20016;-72
2022/06/08 03:51:14;;;;;;;0.73;0.15;;;;;;;16.31;91.93;99742.31;6109913;23;20474;-72
2022/06/08 03:53:44;;;;;;;0.22;0.13;;;;;;;16.32;91.52;99743.13;6160661;23;20040;-72
2022/06/08 03:56:09;;;;;;;2.22;0.30;;;;;;;16.31;91.94;99745.09;6134697;23;20029;-72
2022/06/08 03:58:35;;;;;;;2.35;0.28;;;;;;;16.34;91.71;99742.78;6110048;23;20382;-72
2022/06/08 04:01:01;;;;;;;1.73;0.32;;;;;;;16.33;91.88;99746.75;6134690;23;20305;-72
2022/06/08 04:03:26;;;;;;;1.08;0.10;;;;;;;16.34;91.36;99753.97;6134483;23;20080;-72
2022/06/08 04:05:52;;;;;;;1.77;0.20;;;;;;;16.30;91.67;99751.06;6134296;23;20068;-72
2022/06/08 04:08:17;;;;;;;2.75;0.30;;;;;;;16.29;91.54;99760.63;6133790;23;20010;-72
2022/06/08 04:10:43;;;;;;;0.85;0.10;;;;;;;16.27;91.63;99758.19;6160224;23;20056;-72
2022/06/08 04:13:08;;;;;;;2.50;0.10;;;;;;;16.27;92.19;99754.59;6160232;23;20431;-72
2022/06/08 04:15:43;;;;;;;3.45;0.20;;;;;;;16.27;92.05;99758.19;6160360;23;20013;-72
2022/06/08 04:18:19;;;;;;;1.55;0.10;;;;;;;16.25;91.01;99760.53;6136411;23;20009;-72
2022/06/08 04:20:47;;;;;;;0.98;0.30;;;;;;;16.25;91.91;99760.53;6134140;23;20386;-72
2022/06/08 04:23:12;;;;;;;2.90;0.20;;;;;;;16.25;91.72;99754.91;6134175;23;20313;-72
2022/06/08 04:25:39;;;;;;;0.75;0.13;;;;;;;16.26;91.77;99753.75;6160442;23;20017;-72
2022/06/08 04:28:04;;;;;;;1.73;0.22;;;;;;;16.24;91.72;99753.28;6159996;23;20013;-72
2022/06/08 04:30:31;;;;;;;0.40;0.10;;;;;;;16.24;91.83;99760.84;6129192;23;20014;-72
2022/06/08 04:32:57;;;;;;;2.20;0.20;;;;;;;16.25;92.29;99760.53;6130776;23;20351;-72
2022/06/08 04:35:23;;;;;;;1.35;0.30;;;;;;;16.26;91.80;99769.75;6131055;23;20088;-72
2022/06/08 04:37:49;;;;;;;0.73;0.20;;;;;;;16.23;91.53;99773.25;6130823;23;20021;-72
2022/06/08 04:40:14;;;;;;;3.03;0.30;;;;;;;16.23;91.70;99767.63;6130650;23;20009;-72
2022/06/08 04:42:40;;;;;;;1.27;0.30;;;;;;;16.22;91.62;99772.44;6130442;23;20064;-72
2022/06/08 04:45:06;;;;;;;1.83;0.40;;;;;;;16.19;91.10;99770.34;6129130;23;20021;-72
2022/06/08 04:47:32;;;;;;;1.02;0.22;;;;;;;16.18;92.21;99770.66;6130591;23;20388;-72
2022/06/08 04:49:57;;;;;;;1.58;0.20;;;;;;;16.17;91.49;99771.84;6130244;23;20006;-72
2022/06/08 04:52:23;;;;;;;2.78;0.30;;;;;;;16.17;92.03;99771.84;6178562;23;20002;-72
2022/06/08 04:54:49;;;;;;;1.35;0.40;;;;;;;16.18;91.93;99768.69;6130540;23;20035;-72
2022/06/08 04:57:14;;;;;;;2.45;0.30;;;;;;;16.16;91.62;99756.19;6130348;23;20356;-72
2022/06/08 04:59:40;;;;;;;1.05;0.30;;;;;;;16.15;90.96;99768.56;6130528;23;20010;-72
2022/06/08 05:02:06;;;;;;;3.13;0.30;;;;;;;16.11;90.63;99776.88;6177532;23;20029;-72
2022/06/08 05:04:32;;;;;;;2.33;0.30;;;;;;;16.13;91.44;99770.91;6128736;23;20331;-72
2022/06/08 05:07:02;;;;;;;2.28;0.35;;;;;;;16.09;91.36;99766.00;6130566;23;20005;-72
2022/06/08 05:09:27;;;;;;;3.40;1.02;;;;;;;16.11;92.61;99762.84;6153019;23;20006;-72
2022/06/08 05:11:53;;;;;;;5.75;0.57;;;;;;;16.15;95.92;99766.59;6130075;23;20791;-72
2022/06/08 05:14:19;;;;;;;4.47;0.70;;;;;;;16.23;98.95;99757.25;6130308;23;20005;-72
2022/06/08 05:16:44;;;;;;;3.22;0.70;;;;;;;16.31;97.55;99764.72;6128910;23;20010;-72
2022/06/08 05:19:09;;;;;;;2.33;0.40;;;;;;;16.38;92.06;99769.75;6130232;23;20017;-72
2022/06/08 05:21:36;;;;;;;2.25;0.50;;;;;;;16.53;90.56;99776.63;6178040;23;20009;-71
2022/06/08 05:24:02;;;;;;;2.13;0.50;;;;;;;16.65;90.16;99773.78;6128734;23;20018;-72
2022/06/08 05:26:27;;;;;;;5.50;0.50;;;;;;;16.79;89.54;99781.84;6130158;23;20002;-72
2022/06/08 05:28:52;;;;;;;4.40;0.73;;;;;;;16.94;89.16;99791.53;6133588;23;20009;-68
2022/06/08 05:31:18;;;;;;;3.53;0.52;;;;;;;17.07;88.64;99786.69;6133862;23;20009;-68
2022/06/08 05:33:43;;;;;;;4.75;0.60;;;;;;;17.16;89.51;99787.38;6159703;23;20060;-68
2022/06/08 05:36:09;;;;;;;3.35;0.47;;;;;;;17.27;88.21;99784.88;6159583;23;20024;-68
2022/06/08 05:38:35;;;;;;;3.38;0.60;;;;;;;17.37;87.58;99787.19;6159598;23;20493;-68
2022/06/08 05:41:00;;;;;;;1.40;0.40;;;;;;;17.49;86.89;99784.31;6159616;23;20032;-68
2022/06/08 05:43:27;;;;;;;5.32;0.70;;;;;;;17.61;86.61;99775.84;6133570;23;20459;-68
2022/06/08 05:45:55;;;;;;;4.10;0.60;;;;;;;17.75;88.17;99785.84;6159554;23;20013;-68
2022/06/08 05:48:20;;;;;;;2.00;0.60;;;;;;;17.88;86.33;99786.59;6159432;23;20016;-68
2022/06/08 05:50:46;;;;;;;5.38;0.80;;;;;;;18.03;85.77;99789.41;6133321;23;20364;-68
2022/06/08 05:53:12;;;;;;;3.92;0.50;;;;;;;18.19;85.13;99785.78;6159503;23;20033;-68
2022/06/08 05:55:37;;;;;;;1.60;0.50;;;;;;;18.36;84.54;99793.84;6159393;23;20006;-68
2022/06/08 05:58:03;;;;;;;3.08;0.60;;;;;;;18.53;84.31;99787.84;6159073;23;20009;-71
2022/06/08 06:00:32;;;;;;;2.53;0.70;;;;;;;18.71;83.40;99802.31;6133381;23;20331;-71
2022/06/08 06:02:58;;;;;;;2.22;0.50;;;;;;;18.91;82.79;99802.38;6158981;23;20013;-71
2022/06/08 06:05:26;;;;;;;5.28;0.65;;;;;;;19.10;82.07;99808.03;6159025;23;20325;-71
2022/06/08 06:07:52;;;;;;;3.85;0.80;;;;;;;19.29;81.42;99817.69;6133189;23;20010;-71
2022/06/08 06:10:18;;;;;;;3.13;0.60;;;;;;;19.49;80.75;99821.31;6182007;23;20016;-72
2022/06/08 06:12:43;;;;;;;2.85;0.50;;;;;;;19.66;80.05;99823.72;6084831;23;20376;-72
2022/06/08 06:15:09;;;;;;;2.47;0.80;;;;;;;19.81;79.63;99827.63;6108769;23;20020;-74
2022/06/08 06:17:34;;;;;;;4.57;0.80;;;;;;;19.98;79.72;99829.16;6085337;23;20008;-74
2022/06/08 06:20:00;;;;;;;6.35;0.80;;;;;;;20.07;80.42;99818.44;6108643;23;20005;-71
2022/06/08 06:22:25;;;;;;;4.60;1.02;;;;;;;20.12;79.61;99823.78;6133111;23;20006;-73
2022/06/08 06:24:51;;;;;;;3.88;0.82;;;;;;;20.27;78.76;99824.84;6084698;23;20018;-73
2022/06/08 06:27:17;;;;;;;6.78;0.95;;;;;;;20.30;80.06;99824.88;6108411;23;20066;-73
2022/06/08 06:29:42;;;;;;;5.72;1.10;;;;;;;20.38;78.79;99819.38;6133028;23;20067;-73
2022/06/08 06:32:11;;;;;;;3.70;1.02;;;;;;;20.40;78.75;99822.66;6084717;23;20017;-73
2022/06/08 06:34:37;;;;;;;5.18;1.00;;;;;;;20.42;79.48;99829.53;6084651;23;20013;-73
2022/06/08 06:37:02;;;;;;;4.60;1.33;;;;;;;20.38;80.47;99831.47;6108460;23;20014;-73
2022/06/08 06:39:28;;;;;;;3.60;1.20;;;;;;;20.39;80.38;99838.72;6108471;23;20067;-73
2022/06/08 06:41:54;;;;;;;6.03;1.05;;;;;;;20.37;80.71;99840.31;6132882;23;20053;-72
2022/06/08 06:44:19;;;;;;;4.22;1.00;;;;;;;20.36;80.80;99833.03;6108263;23;20013;-73
2022/06/08 06:46:45;;;;;;;3.10;1.20;;;;;;;20.32;81.14;99835.81;6108731;23;20011;-73
2022/06/08 06:49:10;;;;;;;8.50;1.30;;;;;;;20.35;81.20;99839.88;6182165;23;20075;-72
2022/06/08 06:51:36;;;;;;;5.13;1.10;;;;;;;20.32;80.97;99838.63;6084490;23;20474;-72
2022/06/08 06:54:03;;;;;;;6.28;1.70;;;;;;;20.34;81.42;99846.69;6133065;23;20049;-72
2022/06/08 06:56:28;;;;;;;4.90;1.20;;;;;;;20.33;81.04;99847.91;6108437;23;20009;-73
2022/06/08 06:58:54;;;;;;;2.40;1.10;;;;;;;20.33;80.83;99865.63;6084397;23;20013;-72
2022/06/08 07:01:19;;;;;;;7.85;1.63;;;;;;;20.26;81.48;99852.22;6108334;23;20009;-72
2022/06/08 07:03:45;;;;;;;7.15;1.25;;;;;;;20.24;81.07;99863.06;6107036;23;20039;-73
2022/06/08 07:06:10;;;;;;;4.50;1.30;;;;;;;20.14;80.91;99860.03;6108082;23;20064;-72
2022/06/08 07:08:36;;;;;;;6.28;1.63;;;;;;;20.07;81.38;99863.53;6108491;23;20024;-72
2022/06/08 07:13:46;;;;;;;4.90;1.17;;;;;;;19.89;82.53;99865.19;6116072;23;20063;-73
2022/06/08 07:16:12;;;;;;;5.95;1.65;;;;;;;19.82;82.93;99863.88;6059347;23;20010;-72
2022/06/08 07:18:37;;;;;;;8.40;1.70;;;;;;;19.74;84.47;99864.91;6108647;23;20012;-73
2022/06/08 07:21:03;;;;;;;5.18;1.42;;;;;;;19.63;85.12;99856.22;6108228;23;20075;-72
2022/06/08 07:23:28;;;;;;;6.10;1.40;;;;;;;19.62;85.18;99865.06;6132728;23;20045;-73
2022/06/08 07:25:54;;;;;;;5.63;1.23;;;;;;;19.61;85.60;99869.03;6086105;23;20020;-72
2022/06/08 07:28:19;;;;;;;5.68;1.40;;;;;;;19.59;85.97;99871.44;6134614;23;20335;-72
2022/06/08 07:30:45;;;;;;;6.68;1.40;;;;;;;19.62;85.52;99865.88;6086334;23;20017;-72
2022/06/08 07:33:10;;;;;;;5.25;1.55;;;;;;;19.67;85.49;99878.03;6110054;23;20419;-72
2022/06/08 07:35:36;;;;;;;6.53;1.50;;;;;;;19.74;84.95;99879.00;6110266;23;20430;-72
2022/06/08 07:38:01;;;;;;;7.53;1.77;;;;;;;19.89;86.70;99877.28;6135115;23;20009;-72
2022/06/08 07:40:27;;;;;;;4.88;1.27;;;;;;;20.05;85.27;99880.00;6110324;23;20006;-72
2022/06/08 07:42:52;;;;;;;8.05;1.88;;;;;;;20.22;84.32;99879.53;6160347;23;20006;-72
2022/06/08 07:45:18;;;;;;;6.57;1.83;;;;;;;20.42;82.29;99887.94;6110339;23;20005;-73
2022/06/08 07:50:27;;;;;;;4.40;1.45;;;;;;;20.86;80.34;99888.31;6138767;23;20445;-72
2022/06/08 07:52:53;;;;;;;8.95;1.70;;;;;;;21.08;79.02;99886.63;6110528;23;20001;-72
2022/06/08 07:55:18;;;;;;;8.48;2.13;;;;;;;21.24;77.21;99882.84;6134393;23;20328;-72
2022/06/08 07:57:47;;;;;;;8.05;1.52;;;;;;;21.43;77.31;99885.56;6134474;23;20065;-72
2022/06/08 08:00:13;;;;;;;7.93;1.70;;;;;;;21.56;76.58;99881.28;6134315;23;20101;-72
2022/06/08 08:02:39;;;;;;;7.93;1.77;;;;;;;21.71;75.97;99881.47;6134576;23;20081;-72
2022/06/08 08:05:06;;;;;;;5.43;1.17;;;;;;;21.86;75.12;99886.91;6134294;23;20010;-73
2022/06/08 08:07:32;;;;;;;6.72;1.40;;;;;;;22.00;74.68;99886.25;6135051;23;20347;-73
2022/06/08 08:09:57;;;;;;;7.13;1.70;;;;;;;22.17;74.76;99889.66;6159117;23;20011;-72
2022/06/08 08:12:22;;;;;;;4.93;1.40;;;;;;;22.32;73.90;99887.84;6109669;23;20006;-73
2022/06/08 08:14:48;;;;;;;4.50;1.30;;;;;;;22.52;72.65;99887.22;6110023;23;20016;-72
2022/06/08 08:17:13;;;;;;;4.20;1.17;;;;;;;22.72;72.25;99887.78;6110080;23;20424;-73
2022/06/08 08:19:39;;;;;;;6.80;1.52;;;;;;;22.92;70.86;99888.34;6134365;23;20340;-72
2022/06/08 08:22:05;;;;;;;6.43;1.38;;;;;;;23.10;70.23;99882.03;6134291;23;20009;-72
2022/06/08 08:24:31;;;;;;;6.65;1.60;;;;;;;23.24;69.08;99882.13;6110025;23;20005;-72
2022/06/08 08:26:56;;;;;;;6.20;1.35;;;;;;;23.45;68.25;99892.75;6109661;23;20012;-72
2022/06/08 08:29:22;;;;;;;6.78;1.38;;;;;;;23.52;68.16;99889.97;6109717;23;20032;-73
2022/06/08 08:31:48;;;;;;;6.75;1.10;;;;;;;23.62;67.04;99891.22;6134266;23;20025;-73
2022/06/08 08:34:13;;;;;;;5.10;1.40;;;;;;;23.71;66.74;99894.56;6134495;23;20016;-72
2022/06/08 08:36:39;;;;;;;6.47;1.58;;;;;;;23.81;66.00;99896.59;6133848;23;20319;-73
2022/06/08 08:39:05;;;;;;;8.25;1.38;;;;;;;23.89;64.99;99902.31;6134270;23;20009;-74
2022/06/08 08:44:35;;;;;;;4.68;1.08;;;;;;;24.08;65.08;99902.78;6117459;23;20068;-73
2022/06/08 08:47:10;;;;;;;5.60;1.58;;;;;;;24.11;63.23;99901.16;6160257;23;20458;-73
2022/06/08 08:49:35;;;;;;;6.07;1.30;;;;;;;24.16;61.91;99891.47;6133643;23;20006;-73
2022/06/08 08:52:24;;;;;;;10.20;1.38;;;;;;;24.15;61.73;99901.16;6134190;23;20023;-73
2022/06/08 08:54:54;;;;;;;7.15;1.60;;;;;;;24.20;61.88;99903.63;6085470;23;20033;-73
2022/06/08 08:57:49;;;;;;;6.15;1.50;;;;;;;24.17;61.26;99910.91;6109958;23;20339;-73
2022/06/08 09:00:19;;;;;;;10.00;1.42;;;;;;;24.20;61.30;99900.78;6133172;23;20499;-73
2022/06/08 09:05:31;;;;;;;10.27;1.90;;;;;;;24.42;63.28;99898.81;6113079;23;20014;-73
2022/06/08 09:07:58;;;;;;;7.35;1.58;;;;;;;24.55;63.14;99891.56;6086589;23;20013;-73
2022/06/08 09:10:24;;;;;;;7.10;1.40;;;;;;;24.72;62.05;99899.25;6134094;23;20096;-73
2022/06/08 09:12:50;;;;;;;5.00;1.20;;;;;;;24.90;60.78;99907.78;6109334;23;20139;-73
2022/06/08 09:15:17;;;;;;;7.72;1.23;;;;;;;25.07;58.60;99908.16;6133977;23;20035;-73
2022/06/08 09:17:56;;;;;;;8.98;1.50;;;;;;;25.25;57.01;99906.16;6109483;23;20012;-73
2022/06/08 09:20:23;;;;;;;6.85;1.00;;;;;;;25.46;58.19;99902.44;6134271;23;20013;-73
2022/06/08 09:22:52;;;;;;;3.00;1.10;;;;;;;25.60;57.33;99893.88;6108988;23;20009;-73
2022/06/08 09:25:28;;;;;;;3.95;1.40;;;;;;;25.75;52.99;99896.69;6086011;23;20005;-73
2022/06/08 09:27:55;;;;;;;6.30;1.48;;;;;;;25.86;53.10;99903.16;6133538;23;20065;-73
2022/06/08 09:30:27;;;;;;;5.63;1.10;;;;;;;25.99;52.25;99904.31;6158403;23;20096;-73
2022/06/08 09:32:59;;;;;;;6.50;1.27;;;;;;;26.04;52.49;99906.72;6110011;23;20028;-73
2022/06/08 09:35:36;;;;;;;4.90;1.17;;;;;;;26.08;51.98;99915.25;6109797;23;20332;-73
2022/06/08 09:38:05;;;;;;;6.18;1.20;;;;;;;26.08;52.30;99916.06;6110129;23;20013;-73
2022/06/08 09:40:37;;;;;;;8.38;1.50;;;;;;;26.04;51.38;99914.44;6133925;23;20037;-73
2022/06/08 09:43:23;;;;;;;9.60;1.40;;;;;;;26.10;52.25;99914.81;6133378;23;20009;-73
2022/06/08 09:46:01;;;;;;;8.23;1.38;;;;;;;26.14;51.30;99907.09;6158364;23;20458;-73
2022/06/08 09:52:02;;;;;;;3.60;1.20;;;;;;;26.08;54.41;99910.38;6182636;23;20060;-73
2022/06/08 09:54:49;;;;;;;6.80;1.30;;;;;;;26.20;52.76;99911.13;6109168;23;20009;-73
2022/06/08 09:57:32;;;;;;;5.95;1.25;;;;;;;26.28;52.89;99912.69;6159327;23;20010;-73
2022/06/08 10:00:04;;;;;;;9.25;1.38;;;;;;;26.38;52.90;99913.84;6109210;23;20006;-73
2022/06/08 10:02:29;;;;;;;5.72;1.40;;;;;;;26.43;52.35;99922.75;6159485;23;20064;-73
2022/06/08 10:05:39;;;;;;;8.43;1.52;;;;;;;26.52;51.70;99919.47;6158999;23;20419;-73
2022/06/08 10:08:24;;;;;;;8.25;1.48;;;;;;;26.64;50.89;99921.84;6114068;23;20013;-73
2022/06/08 10:11:02;;;;;;;7.13;1.75;;;;;;;26.77;50.06;99913.59;6133301;23;20023;-73
2022/06/08 10:13:39;;;;;;;6.30;1.23;;;;;;;26.91;50.44;99924.88;6132820;23;20013;-73
2022/06/08 10:16:19;;;;;;;7.35;1.63;;;;;;;27.07;48.90;99927.16;6086026;23;20488;-73
2022/06/08 10:18:53;;;;;;;8.60;1.50;;;;;;;27.21;49.19;99925.44;6133838;23;20005;-73
2022/06/08 10:21:22;;;;;;;6.05;1.10;;;;;;;27.29;48.68;99927.81;6084529;23;20013;-73
2022/06/08 10:24:03;;;;;;;6.25;1.52;;;;;;;27.44;49.88;99927.66;6061127;23;20010;-73
2022/06/08 10:26:42;;;;;;;6.03;1.70;;;;;;;27.57;48.46;99925.88;6133686;23;20040;-73
2022/06/08 10:29:17;;;;;;;7.60;1.67;;;;;;;27.70;46.86;99929.81;6109540;23;20024;-73
2022/06/08 10:31:49;;;;;;;6.25;1.52;;;;;;;27.84;47.95;99928.88;6134053;23;20006;-73
2022/06/08 10:34:22;;;;;;;6.10;1.38;;;;;;;28.00;47.88;99926.22;6108960;23;20016;-73
2022/06/08 10:36:53;;;;;;;7.30;1.58;;;;;;;28.17;47.75;99918.66;6109111;23;20013;-72
2022/06/08 10:39:19;;;;;;;10.13;2.17;;;;;;;28.31;46.79;99925.41;6109140;23;20328;-73
2022/06/08 10:44:35;;;;;;;6.93;1.50;;;;;;;28.71;47.47;99927.25;6112406;23;20372;-72
2022/06/08 10:47:16;;;;;;;8.95;1.60;;;;;;;28.86;45.43;99927.03;6084743;23;20009;-72
2022/06/08 10:49:45;;;;;;;8.50;1.58;;;;;;;29.04;45.55;99927.56;6133223;23;20045;-73
2022/06/08 10:52:20;;;;;;;6.07;1.30;;;;;;;29.15;44.91;99925.31;6159148;23;20006;-73
2022/06/08 10:55:16;;;;;;;8.65;1.67;;;;;;;29.11;43.84;99916.03;6132899;23;20099;-73
2022/06/08 10:57:51;;;;;;;7.05;1.63;;;;;;;29.09;43.23;99915.63;6136832;23;20016;-73
2022/06/08 11:00:20;;;;;;;7.47;1.65;;;;;;;29.03;43.99;99923.09;6158691;23;20013;-73
2022/06/08 11:03:02;;;;;;;9.77;1.77;;;;;;;28.89;43.94;99923.28;6159125;23;20010;-73
2022/06/08 11:05:38;;;;;;;;;;;;;;;28.77;44.55;99927.56;6133231;23;20009;-72
2022/06/08 11:08:06;;;;;;;8.25;1.35;;;;;;;28.55;44.75;99927.09;6133187;23;19928;-72
2022/06/08 11:10:44;;;;;;;8.73;1.67;;;;;;;28.27;44.53;99929.09;6158928;23;20320;-73
2022/06/08 11:13:22;;;;;;;6.30;1.50;;;;;;;28.11;45.52;99931.78;6108250;23;20328;-72
2022/06/08 11:16:22;;;;;;;7.68;1.67;;;;;;;27.94;45.20;99921.41;6159015;23;20438;-72
2022/06/08 11:19:00;;;;;;;6.55;1.33;;;;;;;27.88;45.22;99935.31;6158950;23;20001;-73
2022/06/08 11:21:39;;;;;;;7.07;1.20;;;;;;;27.84;44.78;99938.22;6108845;23;20010;-72
2022/06/08 11:24:07;;;;;;;6.72;1.20;;;;;;;27.91;44.83;99923.06;6108723;23;20045;-72
2022/06/08 11:26:38;;;;;;;6.78;1.30;;;;;;;27.94;41.58;99921.41;6158676;23;20012;-72
2022/06/08 11:29:21;;;;;;;6.20;1.33;;;;;;;27.99;41.23;99930.28;6158735;23;20395;-72
2022/06/08 11:31:50;;;;;;;6.30;1.33;;;;;;;28.16;42.53;99930.50;6158980;23;20073;-72
2022/06/08 11:34:18;;;;;;;5.95;1.20;;;;;;;28.39;42.22;99936.28;6133126;23;20015;-72
2022/06/08 11:37:02;;;;;;;5.95;1.00;;;;;;;28.57;41.34;99941.75;6132586;23;20387;-73
2022/06/08 11:39:43;;;;;;;6.65;1.00;;;;;;;28.67;39.12;99945.72;6132676;23;20312;-73
2022/06/08 11:42:18;;;;;;;3.22;0.98;;;;;;;28.81;38.64;99950.41;6158533;23;20029;-73
2022/06/08 11:44:50;;;;;;;5.35;1.15;;;;;;;28.89;39.49;99946.97;6109047;23;20080;-73
2022/06/08 11:47:21;;;;;;;6.27;1.17;;;;;;;28.99;39.05;99936.59;6108720;23;20033;-73
2022/06/08 11:50:00;;;;;;;4.82;1.00;;;;;;;29.02;38.70;99935.72;6133090;23;20246;-72
2022/06/08 11:52:31;;;;;;;3.83;0.75;;;;;;;29.07;38.03;99935.28;6109739;23;20009;-73
2022/06/08 11:55:05;;;;;;;4.60;0.85;;;;;;;29.16;38.35;99932.66;6108609;23;20009;-73
2022/06/08 11:57:31;;;;;;;5.82;1.20;;;;;;;29.27;37.25;99948.81;6132592;23;20048;-74
2022/06/08 11:59:57;;;;;;;6.43;1.40;;;;;;;29.34;36.84;99946.63;6084721;23;20008;-72
2022/06/08 12:02:44;;;;;;;5.53;1.40;;;;;;;29.46;36.40;99942.34;6108466;23;20064;-72
2022/06/08 12:05:10;;;;;;;2.88;0.73;;;;;;;29.55;36.23;99942.56;6111595;23;20017;-72
2022/06/08 12:07:56;;;;;;;6.82;0.80;;;;;;;29.68;36.56;99944.81;6108783;23;20014;-72